sensor_id;sensor_type;location;lat;lon;timestamp;pressure;altitude;pressure_sealevel;temperature;humidity
71948;BME280;59820;55.076;38.766;2022-07-29T00:00:59;99819.66;;;17.10;83.70
71948;BME280;59820;55.076;38.766;2022-07-29T00:03:25;99845.63;;;17.08;83.81
71948;BME280;59820;55.076;38.766;2022-07-29T00:05:51;99851.41;;;17.13;84.21
71948;BME280;59820;55.076;38.766;2022-07-29T00:08:18;99856.03;;;17.11;84.21
71948;BME280;59820;55.076;38.766;2022-07-29T00:10:46;99850.84;;;17.09;84.22
71948;BME280;59820;55.076;38.766;2022-07-29T00:13:12;99853.97;;;17.03;84.35
71948;BME280;59820;55.076;38.766;2022-07-29T00:15:38;99858.47;;;17.03;83.99
71948;BME280;59820;55.076;38.766;2022-07-29T00:18:04;99847.34;;;16.86;84.44
71948;BME280;59820;55.076;38.766;2022-07-29T00:20:30;99854.72;;;16.83;84.45
71948;BME280;59820;55.076;38.766;2022-07-29T00:22:55;99865.25;;;16.84;84.41
71948;BME280;59820;55.076;38.766;2022-07-29T00:25:22;99857.19;;;16.63;84.81
71948;BME280;59820;55.076;38.766;2022-07-29T00:27:48;99868.81;;;16.73;85.02
71948;BME280;59820;55.076;38.766;2022-07-29T00:30:14;99866.63;;;16.67;84.70
71948;BME280;59820;55.076;38.766;2022-07-29T00:32:40;99875.22;;;16.59;84.71
71948;BME280;59820;55.076;38.766;2022-07-29T00:35:06;99879.00;;;16.68;84.81
71948;BME280;59820;55.076;38.766;2022-07-29T00:37:51;99870.75;;;16.60;84.96
71948;BME280;59820;55.076;38.766;2022-07-29T00:40:18;99874.78;;;16.54;84.59
71948;BME280;59820;55.076;38.766;2022-07-29T00:42:45;99873.19;;;16.52;84.79
71948;BME280;59820;55.076;38.766;2022-07-29T00:45:12;99871.88;;;16.46;85.00
71948;BME280;59820;55.076;38.766;2022-07-29T00:47:38;99859.75;;;16.42;84.59
71948;BME280;59820;55.076;38.766;2022-07-29T00:50:06;99882.16;;;16.51;84.73
71948;BME280;59820;55.076;38.766;2022-07-29T00:52:33;99865.66;;;16.45;84.97
71948;BME280;59820;55.076;38.766;2022-07-29T00:55:00;99850.91;;;16.30;84.91
71948;BME280;59820;55.076;38.766;2022-07-29T00:57:26;99859.63;;;16.21;85.20
71948;BME280;59820;55.076;38.766;2022-07-29T00:59:52;99866.75;;;16.32;85.34
71948;BME280;59820;55.076;38.766;2022-07-29T01:02:18;99867.84;;;16.29;85.40
71948;BME280;59820;55.076;38.766;2022-07-29T01:04:44;99863.72;;;16.25;85.45
71948;BME280;59820;55.076;38.766;2022-07-29T01:07:10;99879.13;;;16.21;85.29
71948;BME280;59820;55.076;38.766;2022-07-29T01:09:37;99877.41;;;16.20;85.62
71948;BME280;59820;55.076;38.766;2022-07-29T01:12:04;99884.19;;;16.13;85.81
71948;BME280;59820;55.076;38.766;2022-07-29T01:14:31;99882.84;;;16.07;85.79
71948;BME280;59820;55.076;38.766;2022-07-29T01:17:17;99889.25;;;16.05;85.87
71948;BME280;59820;55.076;38.766;2022-07-29T01:25:34;99882.28;;;15.80;86.47
71948;BME280;59820;55.076;38.766;2022-07-29T01:31:20;99896.88;;;15.74;86.82
71948;BME280;59820;55.076;38.766;2022-07-29T01:33:57;99885.59;;;15.59;86.94
71948;BME280;59820;55.076;38.766;2022-07-29T01:36:31;99900.16;;;15.66;86.82
71948;BME280;59820;55.076;38.766;2022-07-29T01:39:05;99903.00;;;15.63;87.17
71948;BME280;59820;55.076;38.766;2022-07-29T01:41:32;99892.97;;;15.55;87.64
71948;BME280;59820;55.076;38.766;2022-07-29T01:44:34;99896.47;;;15.56;87.46
71948;BME280;59820;55.076;38.766;2022-07-29T01:47:03;99899.47;;;15.51;87.57
71948;BME280;59820;55.076;38.766;2022-07-29T01:49:35;99901.38;;;15.49;87.46
71948;BME280;59820;55.076;38.766;2022-07-29T01:52:05;99894.97;;;15.40;87.49
71948;BME280;59820;55.076;38.766;2022-07-29T01:54:42;99901.22;;;15.39;87.48
71948;BME280;59820;55.076;38.766;2022-07-29T01:57:11;99893.22;;;15.28;87.80
71948;BME280;59820;55.076;38.766;2022-07-29T01:59:39;99893.09;;;15.30;87.80
71948;BME280;59820;55.076;38.766;2022-07-29T02:02:08;99885.94;;;15.30;87.74
71948;BME280;59820;55.076;38.766;2022-07-29T02:08:56;99884.81;;;15.21;88.48
71948;BME280;59820;55.076;38.766;2022-07-29T02:11:23;99888.56;;;15.19;87.97
71948;BME280;59820;55.076;38.766;2022-07-29T02:13:52;99893.88;;;15.19;88.02
71948;BME280;59820;55.076;38.766;2022-07-29T02:16:20;99903.03;;;15.15;88.11
71948;BME280;59820;55.076;38.766;2022-07-29T02:23:14;99910.72;;;15.06;88.39
71948;BME280;59820;55.076;38.766;2022-07-29T02:25:43;99904.75;;;15.03;88.70
71948;BME280;59820;55.076;38.766;2022-07-29T02:28:10;99916.28;;;15.03;88.32
71948;BME280;59820;55.076;38.766;2022-07-29T02:30:39;99920.72;;;15.03;88.12
71948;BME280;59820;55.076;38.766;2022-07-29T02:33:08;99904.69;;;14.91;88.14
71948;BME280;59820;55.076;38.766;2022-07-29T02:35:35;99920.50;;;15.06;88.21
71948;BME280;59820;55.076;38.766;2022-07-29T02:38:02;99911.59;;;14.94;88.10
71948;BME280;59820;55.076;38.766;2022-07-29T02:40:48;99921.81;;;15.00;88.18
71948;BME280;59820;55.076;38.766;2022-07-29T02:43:17;99933.28;;;15.01;88.20
71948;BME280;59820;55.076;38.766;2022-07-29T02:45:47;99922.88;;;14.98;88.17
71948;BME280;59820;55.076;38.766;2022-07-29T02:48:16;99904.69;;;14.91;88.16
71948;BME280;59820;55.076;38.766;2022-07-29T02:50:48;99915.56;;;14.88;88.19
71948;BME280;59820;55.076;38.766;2022-07-29T02:53:18;99929.56;;;15.03;88.06
71948;BME280;59820;55.076;38.766;2022-07-29T02:55:49;99925.25;;;15.14;87.75
71948;BME280;59820;55.076;38.766;2022-07-29T03:01:10;99910.19;;;15.14;87.48
71948;BME280;59820;55.076;38.766;2022-07-29T03:03:38;99929.28;;;15.19;87.27
71948;BME280;59820;55.076;38.766;2022-07-29T03:06:05;99935.41;;;15.33;87.04
71948;BME280;59820;55.076;38.766;2022-07-29T03:08:34;99936.31;;;15.44;85.97
71948;BME280;59820;55.076;38.766;2022-07-29T03:11:00;99925.28;;;15.38;85.79
71948;BME280;59820;55.076;38.766;2022-07-29T03:13:27;99925.97;;;15.53;85.42
71948;BME280;59820;55.076;38.766;2022-07-29T03:15:55;99928.16;;;15.59;85.33
71948;BME280;59820;55.076;38.766;2022-07-29T03:18:21;99933.53;;;15.70;84.36
71948;BME280;59820;55.076;38.766;2022-07-29T03:20:48;99923.72;;;15.71;83.79
71948;BME280;59820;55.076;38.766;2022-07-29T03:23:33;99923.78;;;15.82;83.39
71948;BME280;59820;55.076;38.766;2022-07-29T03:25:59;99939.19;;;15.90;83.08
71948;BME280;59820;55.076;38.766;2022-07-29T03:28:25;99916.56;;;15.84;82.46
71948;BME280;59820;55.076;38.766;2022-07-29T03:30:53;99941.03;;;16.01;82.02
71948;BME280;59820;55.076;38.766;2022-07-29T03:33:19;99946.69;;;15.96;81.58
71948;BME280;59820;55.076;38.766;2022-07-29T03:35:45;99921.00;;;15.84;81.47
71948;BME280;59820;55.076;38.766;2022-07-29T03:38:11;99932.03;;;15.90;80.38
71948;BME280;59820;55.076;38.766;2022-07-29T03:41:12;99935.88;;;16.10;80.92
71948;BME280;59820;55.076;38.766;2022-07-29T03:43:41;99940.44;;;16.08;81.03
71948;BME280;59820;55.076;38.766;2022-07-29T03:46:10;99946.00;;;16.05;80.31
71948;BME280;59820;55.076;38.766;2022-07-29T03:48:39;99942.78;;;16.13;80.51
71948;BME280;59820;55.076;38.766;2022-07-29T03:51:07;99951.88;;;16.33;78.50
71948;BME280;59820;55.076;38.766;2022-07-29T03:53:33;99936.63;;;16.24;79.19
71948;BME280;59820;55.076;38.766;2022-07-29T03:56:02;99945.56;;;16.23;79.13
71948;BME280;59820;55.076;38.766;2022-07-29T03:58:30;99934.41;;;16.18;78.66
71948;BME280;59820;55.076;38.766;2022-07-29T04:00:57;99934.06;;;16.22;78.97
71948;BME280;59820;55.076;38.766;2022-07-29T04:03:24;99942.19;;;16.32;79.11
71948;BME280;59820;55.076;38.766;2022-07-29T04:06:04;99942.91;;;16.34;78.87
71948;BME280;59820;55.076;38.766;2022-07-29T04:08:34;99949.97;;;16.47;78.49
71948;BME280;59820;55.076;38.766;2022-07-29T04:11:01;99950.31;;;16.42;78.24
71948;BME280;59820;55.076;38.766;2022-07-29T04:13:27;99946.44;;;16.46;78.28
71948;BME280;59820;55.076;38.766;2022-07-29T04:15:53;99948.75;;;16.51;77.87
71948;BME280;59820;55.076;38.766;2022-07-29T04:18:19;99952.13;;;16.41;77.51
71948;BME280;59820;55.076;38.766;2022-07-29T04:20:45;99944.38;;;16.50;78.30
71948;BME280;59820;55.076;38.766;2022-07-29T04:23:12;99941.00;;;16.48;77.76
71948;BME280;59820;55.076;38.766;2022-07-29T04:25:39;99934.09;;;16.56;77.59
71948;BME280;59820;55.076;38.766;2022-07-29T04:28:05;99932.75;;;16.62;77.49
71948;BME280;59820;55.076;38.766;2022-07-29T04:30:32;99950.81;;;16.70;76.79
71948;BME280;59820;55.076;38.766;2022-07-29T04:33:00;99925.00;;;16.59;76.66
71948;BME280;59820;55.076;38.766;2022-07-29T04:35:28;99951.66;;;16.70;76.06
71948;BME280;59820;55.076;38.766;2022-07-29T04:37:54;99969.09;;;16.74;74.99
71948;BME280;59820;55.076;38.766;2022-07-29T04:40:20;99955.31;;;16.81;76.12
71948;BME280;59820;55.076;38.766;2022-07-29T04:42:46;99959.69;;;16.93;75.99
71948;BME280;59820;55.076;38.766;2022-07-29T04:45:12;99953.28;;;16.95;75.02
71948;BME280;59820;55.076;38.766;2022-07-29T04:47:39;99962.72;;;17.00;73.96
71948;BME280;59820;55.076;38.766;2022-07-29T04:50:05;99966.72;;;17.05;73.59
71948;BME280;59820;55.076;38.766;2022-07-29T04:52:32;99971.06;;;16.95;72.86
71948;BME280;59820;55.076;38.766;2022-07-29T04:54:59;99965.03;;;16.93;72.89
71948;BME280;59820;55.076;38.766;2022-07-29T04:57:25;99965.25;;;17.01;71.40
71948;BME280;59820;55.076;38.766;2022-07-29T04:59:51;99964.41;;;17.12;72.46
71948;BME280;59820;55.076;38.766;2022-07-29T05:02:17;99965.38;;;17.11;71.56
71948;BME280;59820;55.076;38.766;2022-07-29T05:04:43;99974.44;;;17.08;70.95
71948;BME280;59820;55.076;38.766;2022-07-29T05:07:09;99971.41;;;17.13;71.64
71948;BME280;59820;55.076;38.766;2022-07-29T05:09:35;99964.97;;;17.27;71.81
71948;BME280;59820;55.076;38.766;2022-07-29T05:12:01;99962.63;;;17.34;70.96
71948;BME280;59820;55.076;38.766;2022-07-29T05:14:28;99981.44;;;17.43;70.80
71948;BME280;59820;55.076;38.766;2022-07-29T05:16:54;99963.06;;;17.50;70.28
71948;BME280;59820;55.076;38.766;2022-07-29T05:19:23;99991.94;;;17.56;70.40
71948;BME280;59820;55.076;38.766;2022-07-29T05:21:48;99966.09;;;17.57;70.26
71948;BME280;59820;55.076;38.766;2022-07-29T05:24:15;99967.56;;;17.50;69.96
71948;BME280;59820;55.076;38.766;2022-07-29T05:26:42;99981.97;;;17.70;69.65
71948;BME280;59820;55.076;38.766;2022-07-29T05:29:08;99978.47;;;17.58;68.69
71948;BME280;59820;55.076;38.766;2022-07-29T05:31:34;99976.16;;;17.64;68.78
71948;BME280;59820;55.076;38.766;2022-07-29T05:34:00;99987.31;;;17.70;68.68
71948;BME280;59820;55.076;38.766;2022-07-29T05:36:26;99980.41;;;17.88;67.07
71948;BME280;59820;55.076;38.766;2022-07-29T05:38:52;99978.72;;;17.87;66.92
71948;BME280;59820;55.076;38.766;2022-07-29T05:41:19;99985.03;;;17.97;66.86
71948;BME280;59820;55.076;38.766;2022-07-29T05:43:45;99978.94;;;17.95;65.47
71948;BME280;59820;55.076;38.766;2022-07-29T05:46:11;99971.59;;;18.09;66.09
71948;BME280;59820;55.076;38.766;2022-07-29T05:48:36;99976.03;;;18.20;65.47
71948;BME280;59820;55.076;38.766;2022-07-29T05:51:03;99998.97;;;18.22;64.80
71948;BME280;59820;55.076;38.766;2022-07-29T05:53:31;99970.19;;;18.26;64.83
71948;BME280;59820;55.076;38.766;2022-07-29T05:55:56;99967.31;;;18.39;64.19
71948;BME280;59820;55.076;38.766;2022-07-29T05:58:22;99967.97;;;18.52;63.62
71948;BME280;59820;55.076;38.766;2022-07-29T06:00:48;99978.81;;;18.60;61.81
71948;BME280;59820;55.076;38.766;2022-07-29T06:03:14;99966.84;;;18.55;61.82
71948;BME280;59820;55.076;38.766;2022-07-29T06:05:40;99982.56;;;18.79;61.71
71948;BME280;59820;55.076;38.766;2022-07-29T06:08:07;99953.25;;;18.68;60.67
71948;BME280;59820;55.076;38.766;2022-07-29T06:10:34;99975.63;;;18.88;59.74
71948;BME280;59820;55.076;38.766;2022-07-29T06:13:01;99986.59;;;18.94;58.45
71948;BME280;59820;55.076;38.766;2022-07-29T06:15:27;99975.41;;;19.10;58.04
71948;BME280;59820;55.076;38.766;2022-07-29T06:17:52;99980.72;;;19.01;57.04
71948;BME280;59820;55.076;38.766;2022-07-29T06:20:18;99975.34;;;18.91;56.79
71948;BME280;59820;55.076;38.766;2022-07-29T06:22:45;99979.78;;;19.11;56.63
71948;BME280;59820;55.076;38.766;2022-07-29T06:25:49;99975.72;;;19.27;55.07
71948;BME280;59820;55.076;38.766;2022-07-29T06:28:14;99982.66;;;19.39;54.80
71948;BME280;59820;55.076;38.766;2022-07-29T06:30:40;99988.03;;;19.59;54.28
71948;BME280;59820;55.076;38.766;2022-07-29T06:33:08;99985.63;;;19.56;54.17
71948;BME280;59820;55.076;38.766;2022-07-29T06:35:34;99981.69;;;19.70;55.17
71948;BME280;59820;55.076;38.766;2022-07-29T06:38:04;99990.31;;;19.73;52.24
71948;BME280;59820;55.076;38.766;2022-07-29T06:40:30;99989.03;;;19.77;51.50
71948;BME280;59820;55.076;38.766;2022-07-29T06:43:15;99982.00;;;19.86;53.37
71948;BME280;59820;55.076;38.766;2022-07-29T06:45:41;99964.50;;;19.72;53.08
71948;BME280;59820;55.076;38.766;2022-07-29T06:48:09;99966.09;;;19.85;53.19
71948;BME280;59820;55.076;38.766;2022-07-29T06:50:35;99991.56;;;19.79;51.72
71948;BME280;59820;55.076;38.766;2022-07-29T06:53:01;99985.81;;;19.83;52.11
71948;BME280;59820;55.076;38.766;2022-07-29T06:55:26;99997.25;;;19.86;51.34
71948;BME280;59820;55.076;38.766;2022-07-29T06:57:53;99993.41;;;19.78;51.96
71948;BME280;59820;55.076;38.766;2022-07-29T07:00:19;99972.72;;;19.90;52.84
71948;BME280;59820;55.076;38.766;2022-07-29T07:02:45;99989.44;;;20.31;52.26
71948;BME280;59820;55.076;38.766;2022-07-29T07:05:11;99989.44;;;20.41;51.05
71948;BME280;59820;55.076;38.766;2022-07-29T07:07:37;99992.41;;;20.38;51.38
71948;BME280;59820;55.076;38.766;2022-07-29T07:10:03;99992.28;;;20.30;51.21
71948;BME280;59820;55.076;38.766;2022-07-29T07:12:29;99998.22;;;20.24;51.95
71948;BME280;59820;55.076;38.766;2022-07-29T07:14:55;99993.56;;;20.16;51.60
71948;BME280;59820;55.076;38.766;2022-07-29T07:17:21;99997.63;;;20.30;50.66
71948;BME280;59820;55.076;38.766;2022-07-29T07:19:47;99994.13;;;20.29;50.25
71948;BME280;59820;55.076;38.766;2022-07-29T07:22:13;99994.28;;;20.28;50.02
71948;BME280;59820;55.076;38.766;2022-07-29T07:24:39;99993.50;;;20.45;50.45
71948;BME280;59820;55.076;38.766;2022-07-29T07:27:05;99996.31;;;20.54;50.80
71948;BME280;59820;55.076;38.766;2022-07-29T07:29:31;100021.44;;;20.43;50.28
71948;BME280;59820;55.076;38.766;2022-07-29T07:31:58;100004.25;;;20.36;49.91
71948;BME280;59820;55.076;38.766;2022-07-29T07:34:24;99996.22;;;20.26;49.69
71948;BME280;59820;55.076;38.766;2022-07-29T07:36:49;99989.44;;;20.41;50.62
71948;BME280;59820;55.076;38.766;2022-07-29T07:39:15;99991.97;;;20.43;50.02
71948;BME280;59820;55.076;38.766;2022-07-29T07:41:44;99998.16;;;20.53;49.83
71948;BME280;59820;55.076;38.766;2022-07-29T07:44:10;100008.31;;;20.49;49.91
71948;BME280;59820;55.076;38.766;2022-07-29T07:46:36;99990.13;;;20.43;50.00
71948;BME280;59820;55.076;38.766;2022-07-29T07:49:02;100001.56;;;20.45;50.27
71948;BME280;59820;55.076;38.766;2022-07-29T07:51:28;99997.72;;;20.58;50.19
71948;BME280;59820;55.076;38.766;2022-07-29T07:53:54;100025.41;;;20.68;50.29
71948;BME280;59820;55.076;38.766;2022-07-29T07:56:20;99990.38;;;20.60;47.71
71948;BME280;59820;55.076;38.766;2022-07-29T07:58:46;99986.28;;;20.65;48.70
71948;BME280;59820;55.076;38.766;2022-07-29T08:01:12;100018.66;;;20.92;49.08
71948;BME280;59820;55.076;38.766;2022-07-29T08:03:38;100013.78;;;20.67;50.76
71948;BME280;59820;55.076;38.766;2022-07-29T08:06:04;100010.69;;;20.62;50.57
71948;BME280;59820;55.076;38.766;2022-07-29T08:08:30;99994.31;;;20.75;51.58
71948;BME280;59820;55.076;38.766;2022-07-29T08:10:57;100017.09;;;20.99;51.57
71948;BME280;59820;55.076;38.766;2022-07-29T08:13:25;99999.31;;;20.98;50.33
71948;BME280;59820;55.076;38.766;2022-07-29T08:15:54;99992.34;;;21.05;50.54
71948;BME280;59820;55.076;38.766;2022-07-29T08:18:24;100003.53;;;21.28;51.26
71948;BME280;59820;55.076;38.766;2022-07-29T08:20:50;100018.63;;;21.29;51.19
71948;BME280;59820;55.076;38.766;2022-07-29T08:23:16;100005.66;;;21.25;51.13
71948;BME280;59820;55.076;38.766;2022-07-29T08:25:44;100010.25;;;21.14;49.36
71948;BME280;59820;55.076;38.766;2022-07-29T08:28:10;100024.06;;;21.19;50.28
71948;BME280;59820;55.076;38.766;2022-07-29T08:30:36;100018.00;;;21.17;49.32
71948;BME280;59820;55.076;38.766;2022-07-29T08:33:02;100030.59;;;21.07;50.05
71948;BME280;59820;55.076;38.766;2022-07-29T08:35:28;100016.31;;;21.16;49.73
71948;BME280;59820;55.076;38.766;2022-07-29T08:37:55;100015.31;;;21.17;49.55
71948;BME280;59820;55.076;38.766;2022-07-29T08:40:22;100019.75;;;20.99;48.74
71948;BME280;59820;55.076;38.766;2022-07-29T08:42:50;100014.81;;;21.04;49.03
71948;BME280;59820;55.076;38.766;2022-07-29T08:45:17;100006.59;;;21.06;48.87
71948;BME280;59820;55.076;38.766;2022-07-29T08:47:44;100013.53;;;21.08;49.11
71948;BME280;59820;55.076;38.766;2022-07-29T08:50:12;100004.38;;;21.01;49.69
71948;BME280;59820;55.076;38.766;2022-07-29T08:52:40;100028.63;;;21.09;50.12
71948;BME280;59820;55.076;38.766;2022-07-29T08:55:08;100027.34;;;21.13;49.63
71948;BME280;59820;55.076;38.766;2022-07-29T08:57:38;100002.47;;;21.11;47.77
71948;BME280;59820;55.076;38.766;2022-07-29T09:00:06;100009.69;;;21.11;48.67
71948;BME280;59820;55.076;38.766;2022-07-29T09:02:36;100017.59;;;21.40;48.81
71948;BME280;59820;55.076;38.766;2022-07-29T09:05:05;100009.34;;;21.24;48.02
71948;BME280;59820;55.076;38.766;2022-07-29T09:07:32;100018.22;;;21.52;47.85
71948;BME280;59820;55.076;38.766;2022-07-29T09:09:59;100019.19;;;21.61;45.63
71948;BME280;59820;55.076;38.766;2022-07-29T09:12:25;100021.59;;;21.64;45.82
71948;BME280;59820;55.076;38.766;2022-07-29T09:14:51;100015.44;;;21.72;45.99
71948;BME280;59820;55.076;38.766;2022-07-29T09:17:17;100029.34;;;21.67;47.24
71948;BME280;59820;55.076;38.766;2022-07-29T09:19:45;99990.50;;;21.79;46.89
71948;BME280;59820;55.076;38.766;2022-07-29T09:22:11;100007.16;;;22.01;46.21
71948;BME280;59820;55.076;38.766;2022-07-29T09:24:46;100014.44;;;21.91;46.61
71948;BME280;59820;55.076;38.766;2022-07-29T09:27:24;100018.59;;;21.85;47.03
71948;BME280;59820;55.076;38.766;2022-07-29T09:32:27;100005.00;;;22.05;46.34
71948;BME280;59820;55.076;38.766;2022-07-29T09:35:19;100018.63;;;22.29;44.82
71948;BME280;59820;55.076;38.766;2022-07-29T09:37:46;100016.22;;;22.62;44.86
71948;BME280;59820;55.076;38.766;2022-07-29T09:40:25;100015.09;;;22.73;44.22
71948;BME280;59820;55.076;38.766;2022-07-29T09:42:51;99996.19;;;22.91;43.53
71948;BME280;59820;55.076;38.766;2022-07-29T09:45:33;99987.47;;;23.24;44.30
71948;BME280;59820;55.076;38.766;2022-07-29T09:47:59;100020.25;;;22.93;43.95
71948;BME280;59820;55.076;38.766;2022-07-29T09:50:42;100002.81;;;22.44;44.25
71948;BME280;59820;55.076;38.766;2022-07-29T09:53:10;100009.03;;;22.27;44.70
71948;BME280;59820;55.076;38.766;2022-07-29T09:55:51;100027.56;;;22.74;44.39
71948;BME280;59820;55.076;38.766;2022-07-29T09:58:19;100015.69;;;22.85;42.49
71948;BME280;59820;55.076;38.766;2022-07-29T10:00:47;100009.75;;;22.29;42.55
71948;BME280;59820;55.076;38.766;2022-07-29T10:03:14;100013.91;;;22.41;42.28
71948;BME280;59820;55.076;38.766;2022-07-29T10:05:42;100014.72;;;22.24;42.62
71948;BME280;59820;55.076;38.766;2022-07-29T10:08:09;99986.69;;;22.70;41.88
71948;BME280;59820;55.076;38.766;2022-07-29T10:10:38;100005.59;;;23.21;40.46
71948;BME280;59820;55.076;38.766;2022-07-29T10:13:08;100009.25;;;23.55;41.54
71948;BME280;59820;55.076;38.766;2022-07-29T10:15:37;99999.66;;;23.52;40.92
71948;BME280;59820;55.076;38.766;2022-07-29T10:18:05;99992.25;;;23.54;40.28
71948;BME280;59820;55.076;38.766;2022-07-29T10:20:31;100012.88;;;23.29;40.40
71948;BME280;59820;55.076;38.766;2022-07-29T10:22:57;100000.19;;;23.13;40.56
71948;BME280;59820;55.076;38.766;2022-07-29T10:25:24;99995.56;;;22.97;40.94
71948;BME280;59820;55.076;38.766;2022-07-29T10:27:51;99997.59;;;22.69;41.63
71948;BME280;59820;55.076;38.766;2022-07-29T10:30:18;100005.59;;;22.87;41.37
71948;BME280;59820;55.076;38.766;2022-07-29T10:36:19;99997.72;;;23.28;40.34
71948;BME280;59820;55.076;38.766;2022-07-29T10:39:00;99995.41;;;23.33;39.39
71948;BME280;59820;55.076;38.766;2022-07-29T10:44:20;99991.41;;;23.54;39.47
71948;BME280;59820;55.076;38.766;2022-07-29T10:46:49;100001.53;;;23.68;39.53
71948;BME280;59820;55.076;38.766;2022-07-29T10:49:23;100013.34;;;23.67;38.83
71948;BME280;59820;55.076;38.766;2022-07-29T10:52:07;100000.53;;;23.78;38.74
71948;BME280;59820;55.076;38.766;2022-07-29T10:57:15;100001.94;;;24.23;37.76
71948;BME280;59820;55.076;38.766;2022-07-29T11:05:03;99992.31;;;24.37;38.85
71948;BME280;59820;55.076;38.766;2022-07-29T11:07:32;99999.03;;;24.41;38.00
71948;BME280;59820;55.076;38.766;2022-07-29T11:15:11;100003.81;;;23.30;37.68
71948;BME280;59820;55.076;38.766;2022-07-29T11:20:45;99982.34;;;24.70;36.05
71948;BME280;59820;55.076;38.766;2022-07-29T11:23:26;100005.16;;;25.08;33.54
71948;BME280;59820;55.076;38.766;2022-07-29T11:31:45;99988.16;;;26.16;32.28
71948;BME280;59820;55.076;38.766;2022-07-29T11:39:41;99999.88;;;26.62;32.19
71948;BME280;59820;55.076;38.766;2022-07-29T11:45:02;99996.69;;;24.63;35.63
71948;BME280;59820;55.076;38.766;2022-07-29T11:47:34;99985.81;;;24.87;36.54
71948;BME280;59820;55.076;38.766;2022-07-29T11:50:01;99988.56;;;24.54;37.13
71948;BME280;59820;55.076;38.766;2022-07-29T11:52:43;100006.16;;;24.17;37.82
71948;BME280;59820;55.076;38.766;2022-07-29T11:55:15;100000.94;;;23.99;38.87
71948;BME280;59820;55.076;38.766;2022-07-29T11:57:47;99999.19;;;25.20;35.78
71948;BME280;59820;55.076;38.766;2022-07-29T12:02:53;99997.56;;;26.20;32.29
71948;BME280;59820;55.076;38.766;2022-07-29T12:05:19;100002.31;;;26.56;31.23
71948;BME280;59820;55.076;38.766;2022-07-29T12:07:47;100012.41;;;26.78;30.69
71948;BME280;59820;55.076;38.766;2022-07-29T12:10:14;99992.41;;;27.23;30.46
71948;BME280;59820;55.076;38.766;2022-07-29T12:12:40;100008.47;;;27.98;29.94
71948;BME280;59820;55.076;38.766;2022-07-29T12:15:15;99992.53;;;27.15;30.65
71948;BME280;59820;55.076;38.766;2022-07-29T12:17:43;100007.09;;;26.84;32.21
71948;BME280;59820;55.076;38.766;2022-07-29T12:20:10;99998.44;;;26.89;31.71
71948;BME280;59820;55.076;38.766;2022-07-29T12:22:41;100004.38;;;26.16;33.45
71948;BME280;59820;55.076;38.766;2022-07-29T12:25:13;100003.53;;;26.69;32.57
71948;BME280;59820;55.076;38.766;2022-07-29T12:27:41;100006.28;;;25.84;33.54
71948;BME280;59820;55.076;38.766;2022-07-29T12:30:11;100003.91;;;25.35;34.20
71948;BME280;59820;55.076;38.766;2022-07-29T12:32:46;100007.25;;;25.37;34.30
71948;BME280;59820;55.076;38.766;2022-07-29T12:35:14;100005.38;;;25.37;34.50
71948;BME280;59820;55.076;38.766;2022-07-29T12:37:42;100014.06;;;26.11;32.71
71948;BME280;59820;55.076;38.766;2022-07-29T12:40:10;99996.97;;;27.38;32.10
71948;BME280;59820;55.076;38.766;2022-07-29T12:42:38;100004.63;;;28.07;29.33
71948;BME280;59820;55.076;38.766;2022-07-29T12:45:05;100000.25;;;28.98;28.99
71948;BME280;59820;55.076;38.766;2022-07-29T12:47:32;100000.88;;;28.93;28.53
71948;BME280;59820;55.076;38.766;2022-07-29T12:50:11;100018.03;;;28.66;28.09
71948;BME280;59820;55.076;38.766;2022-07-29T12:52:39;100006.88;;;27.82;29.75
71948;BME280;59820;55.076;38.766;2022-07-29T12:55:05;100012.31;;;28.54;29.84
71948;BME280;59820;55.076;38.766;2022-07-29T12:57:32;100005.94;;;27.75;30.21
71948;BME280;59820;55.076;38.766;2022-07-29T13:00:11;100009.19;;;28.57;27.70
71948;BME280;59820;55.076;38.766;2022-07-29T13:02:40;100017.25;;;28.22;29.19
71948;BME280;59820;55.076;38.766;2022-07-29T13:05:08;99999.13;;;28.22;29.28
71948;BME280;59820;55.076;38.766;2022-07-29T13:07:37;100008.06;;;27.58;30.13
71948;BME280;59820;55.076;38.766;2022-07-29T13:10:29;100018.31;;;27.63;30.42
71948;BME280;59820;55.076;38.766;2022-07-29T13:15:43;100016.16;;;27.73;30.03
71948;BME280;59820;55.076;38.766;2022-07-29T13:18:34;100025.09;;;28.10;29.39
71948;BME280;59820;55.076;38.766;2022-07-29T13:21:14;100005.53;;;28.71;29.28
71948;BME280;59820;55.076;38.766;2022-07-29T13:23:42;100008.81;;;28.38;30.27
71948;BME280;59820;55.076;38.766;2022-07-29T13:26:09;100025.84;;;27.31;31.55
71948;BME280;59820;55.076;38.766;2022-07-29T13:28:37;100030.03;;;26.58;32.24
71948;BME280;59820;55.076;38.766;2022-07-29T13:31:03;100031.13;;;25.80;33.11
71948;BME280;59820;55.076;38.766;2022-07-29T13:33:30;100026.66;;;25.40;34.00
71948;BME280;59820;55.076;38.766;2022-07-29T13:35:57;100019.25;;;25.26;34.96
71948;BME280;59820;55.076;38.766;2022-07-29T13:38:22;100021.25;;;25.40;34.59
71948;BME280;59820;55.076;38.766;2022-07-29T13:40:48;100027.66;;;25.71;35.65
71948;BME280;59820;55.076;38.766;2022-07-29T13:43:14;100018.03;;;26.91;32.85
71948;BME280;59820;55.076;38.766;2022-07-29T13:45:40;100022.25;;;28.18;30.95
71948;BME280;59820;55.076;38.766;2022-07-29T13:48:09;100024.38;;;28.51;29.41
71948;BME280;59820;55.076;38.766;2022-07-29T13:50:39;100012.22;;;27.39;30.84
71948;BME280;59820;55.076;38.766;2022-07-29T13:53:05;100024.09;;;26.78;31.77
71948;BME280;59820;55.076;38.766;2022-07-29T13:55:31;100025.09;;;26.24;32.79
71948;BME280;59820;55.076;38.766;2022-07-29T13:57:56;100024.03;;;25.55;35.05
71948;BME280;59820;55.076;38.766;2022-07-29T14:00:22;100022.22;;;25.48;33.69